sensor_id;sensor_type;location;lat;lon;timestamp;pressure;altitude;pressure_sealevel;temperature;humidity
63708;BME280;67643;-34.198;22.084;2023-03-04T00:01:32;99759.13;;;24.55;49.96
63708;BME280;67643;-34.198;22.084;2023-03-04T00:04:00;99759.65;;;24.45;50.14
63708;BME280;67643;-34.198;22.084;2023-03-04T00:06:28;99764.37;;;24.29;50.50
63708;BME280;67643;-34.198;22.084;2023-03-04T00:08:57;99760.48;;;24.48;50.10
63708;BME280;67643;-34.198;22.084;2023-03-04T00:11:26;99753.18;;;24.28;50.02
63708;BME280;67643;-34.198;22.084;2023-03-04T00:13:55;99750.21;;;24.40;50.24
63708;BME280;67643;-34.198;22.084;2023-03-04T00:16:23;99753.08;;;24.35;50.38
63708;BME280;67643;-34.198;22.084;2023-03-04T00:18:52;99748.92;;;24.01;50.97
63708;BME280;67643;-34.198;22.084;2023-03-04T00:21:20;99745.50;;;24.22;50.58
63708;BME280;67643;-34.198;22.084;2023-03-04T00:23:49;99741.44;;;24.13;50.75
63708;BME280;67643;-34.198;22.084;2023-03-04T00:26:18;99738.17;;;24.30;50.42
63708;BME280;67643;-34.198;22.084;2023-03-04T00:28:46;99733.61;;;24.12;50.70
63708;BME280;67643;-34.198;22.084;2023-03-04T00:31:15;99733.76;;;24.29;50.41
63708;BME280;67643;-34.198;22.084;2023-03-04T00:33:44;99733.54;;;24.43;50.14
63708;BME280;67643;-34.198;22.084;2023-03-04T00:36:12;99731.38;;;24.29;50.38
63708;BME280;67643;-34.198;22.084;2023-03-04T00:38:40;99731.34;;;24.37;50.24
63708;BME280;67643;-34.198;22.084;2023-03-04T00:41:08;99731.41;;;24.50;50.01
63708;BME280;67643;-34.198;22.084;2023-03-04T00:43:37;99732.52;;;24.54;49.93
63708;BME280;67643;-34.198;22.084;2023-03-04T00:46:05;99733.49;;;24.81;49.46
63708;BME280;67643;-34.198;22.084;2023-03-04T00:48:33;99733.50;;;24.91;49.28
63708;BME280;67643;-34.198;22.084;2023-03-04T00:51:02;99734.65;;;24.69;49.68
63708;BME280;67643;-34.198;22.084;2023-03-04T00:53:30;99731.69;;;24.29;49.92
63708;BME280;67643;-34.198;22.084;2023-03-04T00:55:58;99730.57;;;24.65;49.73
63708;BME280;67643;-34.198;22.084;2023-03-04T00:58:27;99730.70;;;24.65;49.74
63708;BME280;67643;-34.198;22.084;2023-03-04T01:00:55;99727.92;;;24.77;49.52
63708;BME280;67643;-34.198;22.084;2023-03-04T01:03:23;99725.89;;;24.76;49.52
63708;BME280;67643;-34.198;22.084;2023-03-04T01:05:51;99726.90;;;24.54;49.90
63708;BME280;67643;-34.198;22.084;2023-03-04T01:08:20;99726.62;;;24.67;49.66
63708;BME280;67643;-34.198;22.084;2023-03-04T01:10:48;99723.67;;;24.43;50.07
63708;BME280;67643;-34.198;22.084;2023-03-04T01:13:18;99716.85;;;24.78;49.44
63708;BME280;67643;-34.198;22.084;2023-03-04T01:15:46;99720.01;;;24.08;50.21
63708;BME280;67643;-34.198;22.084;2023-03-04T01:18:14;99720.68;;;24.28;49.85
63708;BME280;67643;-34.198;22.084;2023-03-04T01:20:43;99713.55;;;24.19;49.97
63708;BME280;67643;-34.198;22.084;2023-03-04T01:23:11;99717.56;;;24.11;50.64
63708;BME280;67643;-34.198;22.084;2023-03-04T01:25:40;99721.20;;;24.25;50.40
63708;BME280;67643;-34.198;22.084;2023-03-04T01:28:09;99728.28;;;24.40;50.52
63708;BME280;67643;-34.198;22.084;2023-03-04T01:30:37;99731.45;;;24.07;50.73
63708;BME280;67643;-34.198;22.084;2023-03-04T01:33:06;99735.38;;;24.29;50.32
63708;BME280;67643;-34.198;22.084;2023-03-04T01:35:34;99738.34;;;24.44;50.05
63708;BME280;67643;-34.198;22.084;2023-03-04T01:38:03;99742.31;;;24.34;50.18
63708;BME280;67643;-34.198;22.084;2023-03-04T01:40:31;99747.21;;;24.33;50.27
63708;BME280;67643;-34.198;22.084;2023-03-04T01:43:01;99750.62;;;24.33;50.25
63708;BME280;67643;-34.198;22.084;2023-03-04T01:45:31;99748.40;;;24.43;50.02
63708;BME280;67643;-34.198;22.084;2023-03-04T01:48:00;99748.77;;;24.31;50.33
63708;BME280;67643;-34.198;22.084;2023-03-04T01:50:31;99753.66;;;24.48;49.97
63708;BME280;67643;-34.198;22.084;2023-03-04T01:53:00;99756.15;;;24.40;50.11
63708;BME280;67643;-34.198;22.084;2023-03-04T01:55:29;99757.27;;;24.53;49.87
63708;BME280;67643;-34.198;22.084;2023-03-04T01:57:58;99758.46;;;24.32;50.32
63708;BME280;67643;-34.198;22.084;2023-03-04T02:00:29;99760.12;;;24.25;50.42
63708;BME280;67643;-34.198;22.084;2023-03-04T04:10:00;99935.15;;;20.89;64.50
63708;BME280;67643;-34.198;22.084;2023-03-04T04:12:29;99939.87;;;21.83;59.83
63708;BME280;67643;-34.198;22.084;2023-03-04T04:14:57;99934.67;;;22.34;57.37
63708;BME280;67643;-34.198;22.084;2023-03-04T04:17:25;99937.70;;;23.01;55.78
63708;BME280;67643;-34.198;22.084;2023-03-04T04:19:54;99941.30;;;23.11;54.93
63708;BME280;67643;-34.198;22.084;2023-03-04T04:22:22;99951.01;;;23.10;54.27
63708;BME280;67643;-34.198;22.084;2023-03-04T04:24:51;99952.45;;;23.26;53.92
63708;BME280;67643;-34.198;22.084;2023-03-04T04:27:19;99949.87;;;23.47;53.44
63708;BME280;67643;-34.198;22.084;2023-03-04T04:29:48;99948.60;;;23.85;52.55
63708;BME280;67643;-34.198;22.084;2023-03-04T04:32:17;99955.64;;;23.96;52.36
63708;BME280;67643;-34.198;22.084;2023-03-04T04:34:46;99962.90;;;24.13;51.56
63708;BME280;67643;-34.198;22.084;2023-03-04T04:37:14;99964.45;;;23.64;51.99
63708;BME280;67643;-34.198;22.084;2023-03-04T04:39:42;99964.86;;;24.11;51.42
63708;BME280;67643;-34.198;22.084;2023-03-04T04:42:11;99966.59;;;24.01;51.37
63708;BME280;67643;-34.198;22.084;2023-03-04T04:44:39;99971.21;;;24.49;50.29
63708;BME280;67643;-34.198;22.084;2023-03-04T04:47:09;99978.11;;;23.83;51.04
63708;BME280;67643;-34.198;22.084;2023-03-04T04:49:38;99975.07;;;24.15;50.38
63708;BME280;67643;-34.198;22.084;2023-03-04T04:52:06;99975.27;;;24.12;50.36
63708;BME280;67643;-34.198;22.084;2023-03-04T04:54:35;99972.76;;;23.53;51.47
63708;BME280;67643;-34.198;22.084;2023-03-04T04:57:03;99969.30;;;23.89;51.73
63708;BME280;67643;-34.198;22.084;2023-03-04T04:59:32;99969.88;;;23.38;51.82
63708;BME280;67643;-34.198;22.084;2023-03-04T05:02:00;99972.44;;;23.66;52.11
63708;BME280;67643;-34.198;22.084;2023-03-04T05:04:29;99986.72;;;23.37;52.29
63708;BME280;67643;-34.198;22.084;2023-03-04T05:06:58;100001.20;;;23.86;51.67
63708;BME280;67643;-34.198;22.084;2023-03-04T05:09:26;100009.81;;;23.24;51.91
63708;BME280;67643;-34.198;22.084;2023-03-04T05:11:55;100015.64;;;23.34;52.27
63708;BME280;67643;-34.198;22.084;2023-03-04T05:14:23;100017.63;;;23.00;52.53
63708;BME280;67643;-34.198;22.084;2023-03-04T05:16:52;100025.24;;;23.66;51.72
63708;BME280;67643;-34.198;22.084;2023-03-04T05:19:21;100023.87;;;23.36;51.74
63708;BME280;67643;-34.198;22.084;2023-03-04T05:21:49;100022.74;;;23.80;51.83
63708;BME280;67643;-34.198;22.084;2023-03-04T05:24:18;100026.07;;;23.56;51.79
63708;BME280;67643;-34.198;22.084;2023-03-04T05:26:47;100024.86;;;23.00;52.48
63708;BME280;67643;-34.198;22.084;2023-03-04T05:29:15;100024.06;;;23.15;52.16
63708;BME280;67643;-34.198;22.084;2023-03-04T05:31:45;100018.81;;;23.40;52.03
63708;BME280;67643;-34.198;22.084;2023-03-04T05:34:14;100016.52;;;23.16;52.07
63708;BME280;67643;-34.198;22.084;2023-03-04T05:36:42;100014.99;;;23.20;51.97
63708;BME280;67643;-34.198;22.084;2023-03-04T05:39:11;100011.70;;;23.30;51.77
63708;BME280;67643;-34.198;22.084;2023-03-04T05:41:39;99997.90;;;23.75;51.69
63708;BME280;67643;-34.198;22.084;2023-03-04T05:44:08;99982.96;;;23.25;51.80
63708;BME280;67643;-34.198;22.084;2023-03-04T05:46:36;99964.11;;;23.59;51.14
63708;BME280;67643;-34.198;22.084;2023-03-04T05:49:05;99949.87;;;24.27;49.76
63708;BME280;67643;-34.198;22.084;2023-03-04T05:51:33;99951.36;;;24.28;49.93
63708;BME280;67643;-34.198;22.084;2023-03-04T05:54:02;99946.52;;;24.06;49.93
63708;BME280;67643;-34.198;22.084;2023-03-04T05:56:30;99956.76;;;23.87;50.25
63708;BME280;67643;-34.198;22.084;2023-03-04T05:58:59;99975.29;;;24.56;49.01
63708;BME280;67643;-34.198;22.084;2023-03-04T06:01:27;99967.68;;;24.21;49.97
63708;BME280;67643;-34.198;22.084;2023-03-04T06:03:56;99962.86;;;24.09;49.87
63708;BME280;67643;-34.198;22.084;2023-03-04T06:06:24;99963.64;;;24.36;49.37
63708;BME280;67643;-34.198;22.084;2023-03-04T06:08:53;99960.19;;;24.27;49.44
63708;BME280;67643;-34.198;22.084;2023-03-04T06:11:21;99965.92;;;25.08;48.71
63708;BME280;67643;-34.198;22.084;2023-03-04T06:13:50;99969.62;;;23.50;50.62
63708;BME280;67643;-34.198;22.084;2023-03-04T06:16:19;99967.79;;;24.34;50.19
63708;BME280;67643;-34.198;22.084;2023-03-04T06:18:47;99969.25;;;24.05;49.99
63708;BME280;67643;-34.198;22.084;2023-03-04T06:21:16;99957.38;;;24.21;49.65
63708;BME280;67643;-34.198;22.084;2023-03-04T06:23:44;99948.36;;;24.70;49.78
63708;BME280;67643;-34.198;22.084;2023-03-04T06:26:13;99946.57;;;24.49;50.22
63708;BME280;67643;-34.198;22.084;2023-03-04T06:28:42;99953.38;;;24.47;50.35
63708;BME280;67643;-34.198;22.084;2023-03-04T06:31:11;99957.03;;;24.07;51.12
63708;BME280;67643;-34.198;22.084;2023-03-04T06:33:39;99949.69;;;24.07;51.50
63708;BME280;67643;-34.198;22.084;2023-03-04T06:36:07;99941.35;;;24.54;50.44
63708;BME280;67643;-34.198;22.084;2023-03-04T06:38:36;99946.19;;;24.66;50.64
63708;BME280;67643;-34.198;22.084;2023-03-04T06:41:08;99949.19;;;24.48;50.54
63708;BME280;67643;-34.198;22.084;2023-03-04T06:43:38;99946.78;;;24.29;50.52
63708;BME280;67643;-34.198;22.084;2023-03-04T06:46:07;99946.95;;;24.61;49.96
63708;BME280;67643;-34.198;22.084;2023-03-04T06:48:36;99964.74;;;24.25;50.88
63708;BME280;67643;-34.198;22.084;2023-03-04T06:51:07;99963.68;;;24.62;49.75
63708;BME280;67643;-34.198;22.084;2023-03-04T06:53:36;99964.76;;;24.24;50.71
63708;BME280;67643;-34.198;22.084;2023-03-04T06:56:05;99961.56;;;24.47;50.80
63708;BME280;67643;-34.198;22.084;2023-03-04T06:58:34;99958.21;;;24.46;50.73
63708;BME280;67643;-34.198;22.084;2023-03-04T07:01:11;99957.23;;;24.39;50.65
63708;BME280;67643;-34.198;22.084;2023-03-04T07:03:40;99965.75;;;24.39;50.50
63708;BME280;67643;-34.198;22.084;2023-03-04T07:06:10;99982.15;;;24.50;50.57
63708;BME280;67643;-34.198;22.084;2023-03-04T07:08:39;99990.52;;;24.63;50.08
63708;BME280;67643;-34.198;22.084;2023-03-04T07:11:08;100009.99;;;24.56;49.88
63708;BME280;67643;-34.198;22.084;2023-03-04T07:13:37;100027.36;;;24.82;49.84
63708;BME280;67643;-34.198;22.084;2023-03-04T07:16:08;100033.23;;;24.76;49.77
63708;BME280;67643;-34.198;22.084;2023-03-04T07:18:37;100030.45;;;24.51;49.55
63708;BME280;67643;-34.198;22.084;2023-03-04T07:21:07;100031.51;;;24.77;50.04
63708;BME280;67643;-34.198;22.084;2023-03-04T07:23:35;100025.40;;;24.78;50.51
63708;BME280;67643;-34.198;22.084;2023-03-04T07:26:04;100029.97;;;24.52;50.40
63708;BME280;67643;-34.198;22.084;2023-03-04T07:28:33;100039.83;;;24.88;49.85
63708;BME280;67643;-34.198;22.084;2023-03-04T07:31:18;100042.03;;;24.90;49.47
63708;BME280;67643;-34.198;22.084;2023-03-04T07:33:48;100051.23;;;24.50;49.63
63708;BME280;67643;-34.198;22.084;2023-03-04T07:36:17;100053.47;;;25.07;48.70
63708;BME280;67643;-34.198;22.084;2023-03-04T07:38:47;100048.72;;;25.33;48.27
63708;BME280;67643;-34.198;22.084;2023-03-04T07:41:16;100039.80;;;25.40;48.54
63708;BME280;67643;-34.198;22.084;2023-03-04T07:43:45;100039.55;;;25.39;48.15
63708;BME280;67643;-34.198;22.084;2023-03-04T07:46:14;100047.79;;;25.19;48.75
63708;BME280;67643;-34.198;22.084;2023-03-04T07:48:44;100038.91;;;25.69;48.35
63708;BME280;67643;-34.198;22.084;2023-03-04T07:51:15;100034.08;;;25.26;48.80
63708;BME280;67643;-34.198;22.084;2023-03-04T07:53:46;100035.41;;;25.47;47.30
63708;BME280;67643;-34.198;22.084;2023-03-04T07:56:15;100052.13;;;25.10;48.13
63708;BME280;67643;-34.198;22.084;2023-03-04T07:58:49;100059.12;;;25.40;48.47
63708;BME280;67643;-34.198;22.084;2023-03-04T08:01:20;100059.13;;;25.70;48.39
63708;BME280;67643;-34.198;22.084;2023-03-04T08:03:49;100055.52;;;25.59;48.48
63708;BME280;67643;-34.198;22.084;2023-03-04T08:06:19;100055.61;;;25.19;48.49
63708;BME280;67643;-34.198;22.084;2023-03-04T08:08:48;100061.31;;;25.54;48.20
63708;BME280;67643;-34.198;22.084;2023-03-04T08:11:19;100063.03;;;25.59;48.03
63708;BME280;67643;-34.198;22.084;2023-03-04T08:13:47;100062.73;;;25.96;47.73
63708;BME280;67643;-34.198;22.084;2023-03-04T08:16:18;100060.90;;;25.37;47.96
63708;BME280;67643;-34.198;22.084;2023-03-04T08:18:49;100063.67;;;26.12;47.25
63708;BME280;67643;-34.198;22.084;2023-03-04T08:21:20;100063.76;;;26.22;46.67
63708;BME280;67643;-34.198;22.084;2023-03-04T08:23:50;100062.41;;;25.84;46.44
63708;BME280;67643;-34.198;22.084;2023-03-04T08:26:21;100063.33;;;25.69;46.10
63708;BME280;67643;-34.198;22.084;2023-03-04T08:28:51;100070.74;;;25.88;46.08
63708;BME280;67643;-34.198;22.084;2023-03-04T08:31:20;100078.89;;;26.11;45.81
63708;BME280;67643;-34.198;22.084;2023-03-04T08:33:49;100079.18;;;26.25;46.11
63708;BME280;67643;-34.198;22.084;2023-03-04T08:36:17;100080.52;;;26.10;46.33
63708;BME280;67643;-34.198;22.084;2023-03-04T08:38:46;100080.60;;;25.83;46.25
63708;BME280;67643;-34.198;22.084;2023-03-04T08:41:14;100080.97;;;25.80;46.19
63708;BME280;67643;-34.198;22.084;2023-03-04T08:43:43;100076.47;;;25.90;45.88
63708;BME280;67643;-34.198;22.084;2023-03-04T08:46:12;100070.22;;;25.93;45.67
63708;BME280;67643;-34.198;22.084;2023-03-04T08:48:40;100067.95;;;25.94;45.55
63708;BME280;67643;-34.198;22.084;2023-03-04T08:51:10;100058.89;;;25.90;45.58
63708;BME280;67643;-34.198;22.084;2023-03-04T08:53:39;100054.19;;;25.95;45.37
63708;BME280;67643;-34.198;22.084;2023-03-04T08:56:09;100049.34;;;26.01;45.27
63708;BME280;67643;-34.198;22.084;2023-03-04T08:58:37;100042.39;;;25.98;45.25
63708;BME280;67643;-34.198;22.084;2023-03-04T09:01:08;100036.66;;;26.07;44.90
63708;BME280;67643;-34.198;22.084;2023-03-04T09:03:37;100042.08;;;25.72;44.95
63708;BME280;67643;-34.198;22.084;2023-03-04T09:06:07;100046.69;;;25.94;45.05
63708;BME280;67643;-34.198;22.084;2023-03-04T09:08:36;100038.93;;;25.94;45.02
63708;BME280;67643;-34.198;22.084;2023-03-04T09:11:06;100027.14;;;26.02;44.92
63708;BME280;67643;-34.198;22.084;2023-03-04T09:13:36;100014.62;;;26.04;45.00
63708;BME280;67643;-34.198;22.084;2023-03-04T09:16:09;100001.79;;;25.84;45.03
63708;BME280;67643;-34.198;22.084;2023-03-04T09:18:39;99992.08;;;25.81;44.95
63708;BME280;67643;-34.198;22.084;2023-03-04T09:21:08;99994.80;;;25.92;44.87
63708;BME280;67643;-34.198;22.084;2023-03-04T09:23:38;100005.41;;;25.75;44.67
63708;BME280;67643;-34.198;22.084;2023-03-04T09:26:17;99999.85;;;25.96;44.55
63708;BME280;67643;-34.198;22.084;2023-03-04T09:28:49;99988.62;;;26.00;44.46
63708;BME280;67643;-34.198;22.084;2023-03-04T09:31:18;99979.85;;;26.19;44.62
63708;BME280;67643;-34.198;22.084;2023-03-04T09:33:46;99973.23;;;26.06;44.73
63708;BME280;67643;-34.198;22.084;2023-03-04T09:36:15;99972.78;;;26.26;44.40
63708;BME280;67643;-34.198;22.084;2023-03-04T09:38:44;99969.14;;;26.05;44.70
63708;BME280;67643;-34.198;22.084;2023-03-04T09:41:17;99953.40;;;25.79;44.75
63708;BME280;67643;-34.198;22.084;2023-03-04T09:43:48;99920.85;;;25.50;45.63
63708;BME280;67643;-34.198;22.084;2023-03-04T09:46:28;99900.21;;;25.14;46.39
63708;BME280;67643;-34.198;22.084;2023-03-04T09:48:59;99887.37;;;25.27;46.28
63708;BME280;67643;-34.198;22.084;2023-03-04T09:51:43;99881.09;;;25.06;46.93
63708;BME280;67643;-34.198;22.084;2023-03-04T09:54:21;99864.80;;;24.90;47.84
63708;BME280;67643;-34.198;22.084;2023-03-04T09:56:59;99878.95;;;24.30;48.77
63708;BME280;67643;-34.198;22.084;2023-03-04T09:59:31;99894.11;;;24.42;48.47
63708;BME280;67643;-34.198;22.084;2023-03-04T10:02:15;99891.75;;;24.74;48.05
63708;BME280;67643;-34.198;22.084;2023-03-04T10:04:49;99899.84;;;24.30;48.64
63708;BME280;67643;-34.198;22.084;2023-03-04T10:07:22;99873.12;;;24.60;48.28
63708;BME280;67643;-34.198;22.084;2023-03-04T10:09:55;99890.67;;;24.16;48.85
63708;BME280;67643;-34.198;22.084;2023-03-04T10:12:29;99908.13;;;24.76;47.62
63708;BME280;67643;-34.198;22.084;2023-03-04T10:15:02;99915.83;;;25.47;46.85
63708;BME280;67643;-34.198;22.084;2023-03-04T10:17:35;99942.73;;;25.59;46.19
63708;BME280;67643;-34.198;22.084;2023-03-04T10:20:10;99945.00;;;25.87;45.79
63708;BME280;67643;-34.198;22.084;2023-03-04T10:22:45;99940.37;;;25.92;45.43
63708;BME280;67643;-34.198;22.084;2023-03-04T10:25:20;99938.36;;;26.03;45.26
63708;BME280;67643;-34.198;22.084;2023-03-04T10:27:52;99941.19;;;25.72;45.42
63708;BME280;67643;-34.198;22.084;2023-03-04T10:30:36;99934.47;;;25.87;45.28
63708;BME280;67643;-34.198;22.084;2023-03-04T10:33:12;99929.34;;;25.63;45.76
63708;BME280;67643;-34.198;22.084;2023-03-04T10:35:44;99928.85;;;25.24;47.13
63708;BME280;67643;-34.198;22.084;2023-03-04T10:38:13;99934.41;;;25.24;47.11
63708;BME280;67643;-34.198;22.084;2023-03-04T10:40:43;99937.99;;;25.35;46.92
63708;BME280;67643;-34.198;22.084;2023-03-04T10:43:16;99937.67;;;25.71;46.39
63708;BME280;67643;-34.198;22.084;2023-03-04T10:45:47;99940.99;;;25.72;46.45
63708;BME280;67643;-34.198;22.084;2023-03-04T10:48:21;99938.81;;;25.79;45.97
63708;BME280;67643;-34.198;22.084;2023-03-04T10:50:51;99923.63;;;25.81;46.11
63708;BME280;67643;-34.198;22.084;2023-03-04T10:53:29;99915.01;;;25.63;46.52
63708;BME280;67643;-34.198;22.084;2023-03-04T10:55:57;99913.81;;;26.04;46.49
63708;BME280;67643;-34.198;22.084;2023-03-04T10:58:26;99922.19;;;25.78;47.27
63708;BME280;67643;-34.198;22.084;2023-03-04T11:01:04;99925.52;;;25.84;46.86
63708;BME280;67643;-34.198;22.084;2023-03-04T11:03:36;99931.03;;;26.17;46.36
63708;BME280;67643;-34.198;22.084;2023-03-04T11:06:10;99934.79;;;26.13;46.09
63708;BME280;67643;-34.198;22.084;2023-03-04T11:08:40;99940.27;;;26.31;46.08
63708;BME280;67643;-34.198;22.084;2023-03-04T11:11:23;99934.01;;;26.78;46.08
63708;BME280;67643;-34.198;22.084;2023-03-04T11:13:57;99925.61;;;26.39;46.07
63708;BME280;67643;-34.198;22.084;2023-03-04T11:16:29;99930.21;;;26.79;45.79
63708;BME280;67643;-34.198;22.084;2023-03-04T11:19:01;99926.88;;;26.78;45.86
63708;BME280;67643;-34.198;22.084;2023-03-04T11:21:37;99925.12;;;27.03;45.86
63708;BME280;67643;-34.198;22.084;2023-03-04T11:24:11;99932.74;;;26.46;46.16
63708;BME280;67643;-34.198;22.084;2023-03-04T11:26:44;99930.96;;;26.38;46.18
63708;BME280;67643;-34.198;22.084;2023-03-04T11:29:16;99925.77;;;26.47;45.92
63708;BME280;67643;-34.198;22.084;2023-03-04T11:31:50;99930.08;;;26.63;46.09
63708;BME280;67643;-34.198;22.084;2023-03-04T11:34:32;99934.21;;;27.06;45.52
63708;BME280;67643;-34.198;22.084;2023-03-04T11:37:09;99926.50;;;26.20;46.56
63708;BME280;67643;-34.198;22.084;2023-03-04T11:39:43;99915.58;;;26.34;46.41
63708;BME280;67643;-34.198;22.084;2023-03-04T11:42:22;99909.86;;;26.54;46.33
63708;BME280;67643;-34.198;22.084;2023-03-04T11:44:52;99899.82;;;26.49;46.65
63708;BME280;67643;-34.198;22.084;2023-03-04T11:47:32;99899.36;;;26.45;46.88
63708;BME280;67643;-34.198;22.084;2023-03-04T11:50:15;99897.86;;;26.20;47.26
63708;BME280;67643;-34.198;22.084;2023-03-04T11:53:02;99882.12;;;26.50;47.04
63708;BME280;67643;-34.198;22.084;2023-03-04T11:55:38;99871.51;;;26.06;47.28
63708;BME280;67643;-34.198;22.084;2023-03-04T11:58:26;99861.05;;;26.20;47.07
63708;BME280;67643;-34.198;22.084;2023-03-04T12:01:08;99860.21;;;25.75;48.42
63708;BME280;67643;-34.198;22.084;2023-03-04T12:03:53;99857.56;;;26.12;47.75
63708;BME280;67643;-34.198;22.084;2023-03-04T12:06:36;99851.31;;;26.21;47.60
63708;BME280;67643;-34.198;22.084;2023-03-04T12:09:23;99846.60;;;25.94;47.62
63708;BME280;67643;-34.198;22.084;2023-03-04T12:12:06;99838.40;;;25.82;47.91
63708;BME280;67643;-34.198;22.084;2023-03-04T12:14:49;99834.56;;;25.68;48.16
63708;BME280;67643;-34.198;22.084;2023-03-04T12:17:31;99836.58;;;25.76;48.46
63708;BME280;67643;-34.198;22.084;2023-03-04T12:20:20;99833.83;;;25.82;48.83
63708;BME280;67643;-34.198;22.084;2023-03-04T12:22:56;99836.58;;;25.24;49.52
63708;BME280;67643;-34.198;22.084;2023-03-04T12:25:39;99843.23;;;24.91;50.20
63708;BME280;67643;-34.198;22.084;2023-03-04T12:29:17;99844.66;;;25.34;49.44
63708;BME280;67643;-34.198;22.084;2023-03-04T12:31:53;99863.72;;;25.72;48.95
63708;BME280;67643;-34.198;22.084;2023-03-04T12:35:13;99887.77;;;25.78;48.85
63708;BME280;67643;-34.198;22.084;2023-03-04T12:37:57;99895.21;;;26.27;48.03
63708;BME280;67643;-34.198;22.084;2023-03-04T12:40:37;99903.26;;;26.05;48.30
63708;BME280;67643;-34.198;22.084;2023-03-04T12:43:33;99883.70;;;25.82;48.20
63708;BME280;67643;-34.198;22.084;2023-03-04T12:46:12;99834.90;;;25.96;48.35
63708;BME280;67643;-34.198;22.084;2023-03-04T12:48:50;99778.63;;;25.70;48.83
63708;BME280;67643;-34.198;22.084;2023-03-04T12:51:31;99710.48;;;25.30;50.31
63708;BME280;67643;-34.198;22.084;2023-03-04T12:54:10;99691.34;;;24.73;51.69
63708;BME280;67643;-34.198;22.084;2023-03-04T12:56:47;99704.85;;;25.06;50.72
63708;BME280;67643;-34.198;22.084;2023-03-04T12:59:19;99703.64;;;25.15;51.21
63708;BME280;67643;-34.198;22.084;2023-03-04T13:01:55;99730.86;;;24.25;52.97
63708;BME280;67643;-34.198;22.084;2023-03-04T13:04:31;99735.56;;;24.53;52.61
63708;BME280;67643;-34.198;22.084;2023-03-04T13:07:13;99735.48;;;25.01;52.16
63708;BME280;67643;-34.198;22.084;2023-03-04T13:09:49;99758.49;;;25.00;52.61
63708;BME280;67643;-34.198;22.084;2023-03-04T13:12:22;99802.00;;;24.98;51.70
63708;BME280;67643;-34.198;22.084;2023-03-04T13:15:35;99820.45;;;25.29;50.71
63708;BME280;67643;-34.198;22.084;2023-03-04T13:18:30;99842.71;;;25.13;50.48
63708;BME280;67643;-34.198;22.084;2023-03-04T13:21:16;99901.32;;;25.34;49.98
63708;BME280;67643;-34.198;22.084;2023-03-04T13:23:49;99922.69;;;25.58;49.07
63708;BME280;67643;-34.198;22.084;2023-03-04T13:26:22;99898.66;;;26.05;48.79
63708;BME280;67643;-34.198;22.084;2023-03-04T13:29:10;99862.79;;;25.97;48.83
63708;BME280;67643;-34.198;22.084;2023-03-04T13:32:00;99832.68;;;25.70;48.85
63708;BME280;67643;-34.198;22.084;2023-03-04T13:34:47;99826.67;;;25.80;49.17
63708;BME280;67643;-34.198;22.084;2023-03-04T13:37:34;99837.12;;;25.88;48.96
63708;BME280;67643;-34.198;22.084;2023-03-04T13:40:37;99849.09;;;25.59;49.38
63708;BME280;67643;-34.198;22.084;2023-03-04T13:43:37;99865.76;;;25.79;48.97
63708;BME280;67643;-34.198;22.084;2023-03-04T13:46:45;99858.22;;;25.63;48.75
63708;BME280;67643;-34.198;22.084;2023-03-04T13:49:20;99851.38;;;25.95;48.78
63708;BME280;67643;-34.198;22.084;2023-03-04T13:51:50;99840.19;;;25.90;48.75
63708;BME280;67643;-34.198;22.084;2023-03-04T13:54:25;99826.76;;;25.74;48.96
63708;BME280;67643;-34.198;22.084;2023-03-04T13:57:16;99801.85;;;25.37;50.24
63708;BME280;67643;-34.198;22.084;2023-03-04T13:59:46;99802.74;;;25.12;50.75
63708;BME280;67643;-34.198;22.084;2023-03-04T14:02:18;99797.99;;;25.36;49.86
63708;BME280;67643;-34.198;22.084;2023-03-04T14:04:56;99775.48;;;25.25;49.95
63708;BME280;67643;-34.198;22.084;2023-03-04T14:07:26;99749.68;;;24.71;51.01
63708;BME280;67643;-34.198;22.084;2023-03-04T14:09:58;99756.53;;;24.32;52.10
63708;BME280;67643;-34.198;22.084;2023-03-04T14:12:30;99748.18;;;24.91;50.98
63708;BME280;67643;-34.198;22.084;2023-03-04T14:15:02;99734.66;;;24.48;51.91
63708;BME280;67643;-34.198;22.084;2023-03-04T14:17:34;99723.59;;;23.98;52.95
63708;BME280;67643;-34.198;22.084;2023-03-04T14:20:04;99748.43;;;24.30;52.36
63708;BME280;67643;-34.198;22.084;2023-03-04T14:22:38;99749.78;;;24.86;51.31
63708;BME280;67643;-34.198;22.084;2023-03-04T14:25:20;99730.80;;;24.84;51.40
63708;BME280;67643;-34.198;22.084;2023-03-04T14:27:50;99739.62;;;24.54;51.98
63708;BME280;67643;-34.198;22.084;2023-03-04T14:30:30;99727.43;;;24.48;52.54
63708;BME280;67643;-34.198;22.084;2023-03-04T14:32:59;99727.80;;;23.69;53.48
63708;BME280;67643;-34.198;22.084;2023-03-04T14:35:29;99731.78;;;24.11;53.05
63708;BME280;67643;-34.198;22.084;2023-03-04T14:38:00;99736.83;;;24.08;53.03
63708;BME280;67643;-34.198;22.084;2023-03-04T14:40:30;99737.91;;;24.04;52.50
63708;BME280;67643;-34.198;22.084;2023-03-04T14:43:04;99735.24;;;24.31;52.53
63708;BME280;67643;-34.198;22.084;2023-03-04T14:45:34;99725.42;;;24.16;53.15
63708;BME280;67643;-34.198;22.084;2023-03-04T14:48:05;99724.40;;;24.15;52.77
63708;BME280;67643;-34.198;22.084;2023-03-04T14:50:34;99727.94;;;24.00;53.29
63708;BME280;67643;-34.198;22.084;2023-03-04T14:53:14;99749.13;;;24.73;51.61
63708;BME280;67643;-34.198;22.084;2023-03-04T14:55:56;99756.38;;;24.76;51.00
63708;BME280;67643;-34.198;22.084;2023-03-04T14:58:27;99748.23;;;24.35;51.56
63708;BME280;67643;-34.198;22.084;2023-03-04T15:01:07;99752.51;;;24.79;50.82
63708;BME280;67643;-34.198;22.084;2023-03-04T15:03:41;99736.36;;;24.89;50.50
63708;BME280;67643;-34.198;22.084;2023-03-04T15:06:17;99723.57;;;24.93;50.41
63708;BME280;67643;-34.198;22.084;2023-03-04T15:08:55;99725.08;;;24.79;49.85
63708;BME280;67643;-34.198;22.084;2023-03-04T15:11:26;99704.51;;;24.64;50.52
63708;BME280;67643;-34.198;22.084;2023-03-04T15:13:57;99679.12;;;24.41;51.41